sensor_id;sensor_type;location;lat;lon;timestamp;pressure;altitude;pressure_sealevel;temperature;humidity
34482;BME280;20720;48.886;9.388;2023-01-27T00:00:43;98639.59;;;2.61;100.00
34482;BME280;20720;48.886;9.388;2023-01-27T00:03:11;98640.38;;;2.71;100.00
34482;BME280;20720;48.886;9.388;2023-01-27T00:05:37;98640.03;;;2.56;100.00
34482;BME280;20720;48.886;9.388;2023-01-27T00:08:03;98632.47;;;2.72;100.00
34482;BME280;20720;48.886;9.388;2023-01-27T00:10:28;98630.53;;;2.74;100.00
34482;BME280;20720;48.886;9.388;2023-01-27T00:12:53;98642.03;;;2.72;100.00
34482;BME280;20720;48.886;9.388;2023-01-27T00:15:37;98631.13;;;2.68;100.00
34482;BME280;20720;48.886;9.388;2023-01-27T00:18:03;98632.75;;;2.69;100.00
34482;BME280;20720;48.886;9.388;2023-01-27T00:20:28;98642.25;;;2.78;100.00
34482;BME280;20720;48.886;9.388;2023-01-27T00:23:15;98639.53;;;2.80;100.00
34482;BME280;20720;48.886;9.388;2023-01-27T00:25:59;98635.22;;;2.61;100.00
34482;BME280;20720;48.886;9.388;2023-01-27T00:28:26;98634.69;;;2.58;100.00
34482;BME280;20720;48.886;9.388;2023-01-27T00:30:55;98638.97;;;2.49;100.00
34482;BME280;20720;48.886;9.388;2023-01-27T00:33:21;98629.94;;;2.53;100.00
34482;BME280;20720;48.886;9.388;2023-01-27T00:35:48;98629.53;;;2.48;100.00
34482;BME280;20720;48.886;9.388;2023-01-27T00:38:14;98631.84;;;2.51;100.00
34482;BME280;20720;48.886;9.388;2023-01-27T00:40:39;98632.28;;;2.37;100.00
34482;BME280;20720;48.886;9.388;2023-01-27T00:43:04;98632.97;;;2.39;100.00
34482;BME280;20720;48.886;9.388;2023-01-27T00:45:30;98633.13;;;2.28;100.00
34482;BME280;20720;48.886;9.388;2023-01-27T00:48:13;98634.25;;;2.16;100.00
34482;BME280;20720;48.886;9.388;2023-01-27T00:50:38;98629.16;;;2.43;100.00
34482;BME280;20720;48.886;9.388;2023-01-27T00:53:03;98637.59;;;2.45;100.00
34482;BME280;20720;48.886;9.388;2023-01-27T00:55:29;98635.28;;;2.42;100.00
34482;BME280;20720;48.886;9.388;2023-01-27T00:57:54;98639.25;;;2.27;100.00
34482;BME280;20720;48.886;9.388;2023-01-27T01:00:19;98635.94;;;2.44;100.00
34482;BME280;20720;48.886;9.388;2023-01-27T01:02:45;98634.97;;;2.55;100.00
34482;BME280;20720;48.886;9.388;2023-01-27T01:05:10;98633.31;;;2.17;100.00
34482;BME280;20720;48.886;9.388;2023-01-27T01:07:35;98631.75;;;2.34;100.00
34482;BME280;20720;48.886;9.388;2023-01-27T01:10:00;98641.31;;;2.33;100.00
34482;BME280;20720;48.886;9.388;2023-01-27T01:12:26;98646.31;;;2.44;100.00
34482;BME280;20720;48.886;9.388;2023-01-27T01:14:51;98646.94;;;2.65;100.00
34482;BME280;20720;48.886;9.388;2023-01-27T01:17:16;98645.88;;;2.58;100.00
34482;BME280;20720;48.886;9.388;2023-01-27T01:19:41;98653.25;;;2.63;100.00
34482;BME280;20720;48.886;9.388;2023-01-27T01:22:07;98655.13;;;2.70;100.00
34482;BME280;20720;48.886;9.388;2023-01-27T01:24:32;98655.56;;;2.56;100.00
34482;BME280;20720;48.886;9.388;2023-01-27T01:26:57;98657.28;;;2.38;100.00
34482;BME280;20720;48.886;9.388;2023-01-27T01:29:22;98650.88;;;2.33;100.00
34482;BME280;20720;48.886;9.388;2023-01-27T01:31:51;98654.41;;;2.32;100.00
34482;BME280;20720;48.886;9.388;2023-01-27T01:34:16;98651.78;;;2.41;100.00
34482;BME280;20720;48.886;9.388;2023-01-27T01:36:41;98649.72;;;2.54;100.00
34482;BME280;20720;48.886;9.388;2023-01-27T01:39:06;98642.34;;;2.50;100.00
34482;BME280;20720;48.886;9.388;2023-01-27T01:41:32;98645.09;;;2.48;100.00
34482;BME280;20720;48.886;9.388;2023-01-27T01:43:57;98644.56;;;2.45;100.00
34482;BME280;20720;48.886;9.388;2023-01-27T01:46:22;98636.91;;;2.43;100.00
34482;BME280;20720;48.886;9.388;2023-01-27T01:48:53;98634.34;;;2.43;100.00
34482;BME280;20720;48.886;9.388;2023-01-27T01:51:30;98632.06;;;2.21;100.00
34482;BME280;20720;48.886;9.388;2023-01-27T01:54:04;98629.03;;;2.35;100.00
34482;BME280;20720;48.886;9.388;2023-01-27T01:56:39;98638.78;;;2.60;100.00
34482;BME280;20720;48.886;9.388;2023-01-27T01:59:10;98632.53;;;2.53;100.00
34482;BME280;20720;48.886;9.388;2023-01-27T02:01:37;98629.03;;;2.35;100.00
34482;BME280;20720;48.886;9.388;2023-01-27T02:04:05;98623.84;;;2.35;100.00
34482;BME280;20720;48.886;9.388;2023-01-27T02:06:39;98628.91;;;2.73;100.00
34482;BME280;20720;48.886;9.388;2023-01-27T02:09:08;98624.69;;;2.72;100.00
34482;BME280;20720;48.886;9.388;2023-01-27T02:11:34;98627.94;;;2.74;100.00
34482;BME280;20720;48.886;9.388;2023-01-27T02:14:00;98626.47;;;2.72;100.00
34482;BME280;20720;48.886;9.388;2023-01-27T02:16:26;98612.19;;;2.58;100.00
34482;BME280;20720;48.886;9.388;2023-01-27T02:18:51;98616.97;;;2.53;100.00
34482;BME280;20720;48.886;9.388;2023-01-27T02:21:17;98616.69;;;2.56;100.00
34482;BME280;20720;48.886;9.388;2023-01-27T02:24:09;98609.56;;;2.68;100.00
34482;BME280;20720;48.886;9.388;2023-01-27T02:26:42;98609.78;;;2.74;100.00
34482;BME280;20720;48.886;9.388;2023-01-27T02:29:11;98614.25;;;2.55;100.00
34482;BME280;20720;48.886;9.388;2023-01-27T02:31:37;98616.06;;;2.35;100.00
34482;BME280;20720;48.886;9.388;2023-01-27T02:34:06;98617.72;;;2.73;100.00
34482;BME280;20720;48.886;9.388;2023-01-27T02:36:37;98616.25;;;2.70;100.00
34482;BME280;20720;48.886;9.388;2023-01-27T02:39:05;98620.41;;;2.81;100.00
34482;BME280;20720;48.886;9.388;2023-01-27T02:41:40;98610.63;;;2.65;100.00
34482;BME280;20720;48.886;9.388;2023-01-27T02:44:07;98613.22;;;2.38;100.00
34482;BME280;20720;48.886;9.388;2023-01-27T02:46:33;98618.75;;;2.53;100.00
34482;BME280;20720;48.886;9.388;2023-01-27T02:48:58;98625.44;;;2.55;100.00
34482;BME280;20720;48.886;9.388;2023-01-27T02:51:23;98612.34;;;2.47;100.00
34482;BME280;20720;48.886;9.388;2023-01-27T02:53:49;98613.41;;;2.54;100.00
34482;BME280;20720;48.886;9.388;2023-01-27T02:56:14;98615.53;;;2.78;100.00
34482;BME280;20720;48.886;9.388;2023-01-27T02:58:39;98616.13;;;2.62;100.00
34482;BME280;20720;48.886;9.388;2023-01-27T03:01:05;98603.59;;;2.48;100.00
34482;BME280;20720;48.886;9.388;2023-01-27T03:03:30;98602.78;;;2.57;100.00
34482;BME280;20720;48.886;9.388;2023-01-27T03:05:55;98602.97;;;2.73;100.00
34482;BME280;20720;48.886;9.388;2023-01-27T03:08:21;98609.03;;;2.64;100.00
34482;BME280;20720;48.886;9.388;2023-01-27T03:10:53;98605.72;;;2.72;100.00
34482;BME280;20720;48.886;9.388;2023-01-27T03:13:24;98611.44;;;2.75;100.00
34482;BME280;20720;48.886;9.388;2023-01-27T03:15:50;98614.97;;;2.74;100.00
34482;BME280;20720;48.886;9.388;2023-01-27T03:18:34;98619.50;;;2.72;100.00
34482;BME280;20720;48.886;9.388;2023-01-27T03:21:02;98610.56;;;2.84;100.00
34482;BME280;20720;48.886;9.388;2023-01-27T03:23:28;98620.31;;;2.73;100.00
34482;BME280;20720;48.886;9.388;2023-01-27T03:25:53;98624.97;;;2.23;100.00
34482;BME280;20720;48.886;9.388;2023-01-27T03:28:18;98624.94;;;2.33;100.00
34482;BME280;20720;48.886;9.388;2023-01-27T03:30:44;98625.69;;;2.52;100.00
34482;BME280;20720;48.886;9.388;2023-01-27T03:33:09;98623.56;;;2.75;100.00
34482;BME280;20720;48.886;9.388;2023-01-27T03:35:36;98616.34;;;2.69;100.00
34482;BME280;20720;48.886;9.388;2023-01-27T03:38:13;98611.13;;;2.78;100.00
34482;BME280;20720;48.886;9.388;2023-01-27T03:40:57;98623.06;;;2.25;100.00
34482;BME280;20720;48.886;9.388;2023-01-27T03:43:41;98617.19;;;2.23;100.00
34482;BME280;20720;48.886;9.388;2023-01-27T03:46:25;98628.97;;;2.54;100.00
34482;BME280;20720;48.886;9.388;2023-01-27T03:48:52;98622.13;;;2.63;100.00
34482;BME280;20720;48.886;9.388;2023-01-27T03:51:20;98620.97;;;2.75;100.00
34482;BME280;20720;48.886;9.388;2023-01-27T03:53:46;98616.72;;;2.83;100.00
34482;BME280;20720;48.886;9.388;2023-01-27T03:56:13;98618.97;;;2.59;100.00
34482;BME280;20720;48.886;9.388;2023-01-27T03:58:38;98616.63;;;2.75;100.00
34482;BME280;20720;48.886;9.388;2023-01-27T04:01:10;98617.94;;;2.89;100.00
34482;BME280;20720;48.886;9.388;2023-01-27T04:03:36;98613.84;;;2.86;100.00
34482;BME280;20720;48.886;9.388;2023-01-27T04:06:22;98615.75;;;2.84;100.00
34482;BME280;20720;48.886;9.388;2023-01-27T04:09:08;98623.66;;;2.93;100.00
34482;BME280;20720;48.886;9.388;2023-01-27T04:11:33;98621.75;;;2.85;100.00
34482;BME280;20720;48.886;9.388;2023-01-27T04:14:17;98624.88;;;2.88;100.00
34482;BME280;20720;48.886;9.388;2023-01-27T04:16:43;98637.72;;;2.90;100.00
34482;BME280;20720;48.886;9.388;2023-01-27T04:19:10;98637.28;;;2.95;100.00
34482;BME280;20720;48.886;9.388;2023-01-27T04:21:36;98632.94;;;2.95;100.00
34482;BME280;20720;48.886;9.388;2023-01-27T04:24:02;98637.66;;;3.00;100.00
34482;BME280;20720;48.886;9.388;2023-01-27T04:26:28;98633.75;;;2.86;100.00
34482;BME280;20720;48.886;9.388;2023-01-27T04:28:58;98632.94;;;2.95;100.00
34482;BME280;20720;48.886;9.388;2023-01-27T04:31:24;98632.94;;;2.95;100.00
34482;BME280;20720;48.886;9.388;2023-01-27T04:33:49;98634.88;;;2.83;100.00
34482;BME280;20720;48.886;9.388;2023-01-27T04:36:14;98637.84;;;2.88;100.00
34482;BME280;20720;48.886;9.388;2023-01-27T04:38:40;98630.84;;;2.99;100.00
34482;BME280;20720;48.886;9.388;2023-01-27T04:41:06;98613.91;;;2.67;100.00
34482;BME280;20720;48.886;9.388;2023-01-27T04:43:31;98623.59;;;2.65;100.00
34482;BME280;20720;48.886;9.388;2023-01-27T04:45:56;98638.09;;;2.58;100.00
34482;BME280;20720;48.886;9.388;2023-01-27T04:48:22;98629.28;;;2.51;100.00
34482;BME280;20720;48.886;9.388;2023-01-27T04:50:47;98635.63;;;2.66;100.00
34482;BME280;20720;48.886;9.388;2023-01-27T04:53:12;98637.94;;;2.23;100.00
34482;BME280;20720;48.886;9.388;2023-01-27T04:55:37;98644.03;;;1.27;100.00
34482;BME280;20720;48.886;9.388;2023-01-27T04:58:04;98639.38;;;2.35;100.00
34482;BME280;20720;48.886;9.388;2023-01-27T05:00:30;98634.94;;;2.64;100.00
34482;BME280;20720;48.886;9.388;2023-01-27T05:02:56;98631.69;;;2.62;100.00
34482;BME280;20720;48.886;9.388;2023-01-27T05:05:21;98629.41;;;2.86;100.00
34482;BME280;20720;48.886;9.388;2023-01-27T05:07:46;98638.78;;;2.60;100.00
34482;BME280;20720;48.886;9.388;2023-01-27T05:10:12;98643.00;;;2.61;100.00
34482;BME280;20720;48.886;9.388;2023-01-27T05:12:37;98646.75;;;1.35;100.00
34482;BME280;20720;48.886;9.388;2023-01-27T05:15:02;98649.06;;;1.28;100.00
34482;BME280;20720;48.886;9.388;2023-01-27T05:17:32;98651.69;;;2.14;100.00
34482;BME280;20720;48.886;9.388;2023-01-27T05:19:57;98649.25;;;2.22;100.00
34482;BME280;20720;48.886;9.388;2023-01-27T05:22:22;98650.53;;;2.55;100.00
34482;BME280;20720;48.886;9.388;2023-01-27T05:24:48;98646.00;;;2.66;100.00
34482;BME280;20720;48.886;9.388;2023-01-27T05:27:13;98648.13;;;2.44;100.00
34482;BME280;20720;48.886;9.388;2023-01-27T05:29:39;98649.94;;;2.70;100.00
34482;BME280;20720;48.886;9.388;2023-01-27T05:32:04;98646.69;;;2.68;100.00
34482;BME280;20720;48.886;9.388;2023-01-27T05:34:29;98655.63;;;2.37;100.00
34482;BME280;20720;48.886;9.388;2023-01-27T05:36:54;98655.69;;;2.64;100.00
34482;BME280;20720;48.886;9.388;2023-01-27T05:39:20;98655.19;;;2.51;100.00
34482;BME280;20720;48.886;9.388;2023-01-27T05:41:45;98652.63;;;2.32;100.00
34482;BME280;20720;48.886;9.388;2023-01-27T05:44:11;98659.88;;;1.62;100.00
34482;BME280;20720;48.886;9.388;2023-01-27T05:46:38;98652.34;;;2.35;100.00
34482;BME280;20720;48.886;9.388;2023-01-27T05:49:04;98651.38;;;2.55;100.00
34482;BME280;20720;48.886;9.388;2023-01-27T05:51:32;98658.91;;;2.85;100.00
34482;BME280;20720;48.886;9.388;2023-01-27T05:53:58;98653.13;;;2.92;100.00
34482;BME280;20720;48.886;9.388;2023-01-27T05:56:23;98660.88;;;2.64;100.00
34482;BME280;20720;48.886;9.388;2023-01-27T05:58:52;98656.53;;;2.65;100.00
34482;BME280;20720;48.886;9.388;2023-01-27T06:01:23;98657.31;;;2.65;100.00
34482;BME280;20720;48.886;9.388;2023-01-27T06:03:48;98660.09;;;2.54;100.00
34482;BME280;20720;48.886;9.388;2023-01-27T06:06:16;98662.63;;;1.89;100.00
34482;BME280;20720;48.886;9.388;2023-01-27T06:08:43;98659.81;;;2.57;100.00
34482;BME280;20720;48.886;9.388;2023-01-27T06:11:08;98660.03;;;2.73;100.00
34482;BME280;20720;48.886;9.388;2023-01-27T06:13:34;98661.53;;;1.82;100.00
34482;BME280;20720;48.886;9.388;2023-01-27T06:16:03;98663.81;;;0.98;100.00
34482;BME280;20720;48.886;9.388;2023-01-27T06:18:29;98666.94;;;1.41;100.00
34482;BME280;20720;48.886;9.388;2023-01-27T06:20:59;98673.78;;;1.51;100.00
34482;BME280;20720;48.886;9.388;2023-01-27T06:23:24;98668.22;;;1.84;100.00
34482;BME280;20720;48.886;9.388;2023-01-27T06:25:51;98660.66;;;2.39;100.00
34482;BME280;20720;48.886;9.388;2023-01-27T06:28:17;98668.84;;;2.44;100.00
34482;BME280;20720;48.886;9.388;2023-01-27T06:30:42;98671.34;;;2.07;100.00
34482;BME280;20720;48.886;9.388;2023-01-27T06:33:08;98676.00;;;1.94;100.00
34482;BME280;20720;48.886;9.388;2023-01-27T06:35:35;98666.13;;;2.36;100.00
34482;BME280;20720;48.886;9.388;2023-01-27T06:38:02;98674.75;;;1.98;100.00
34482;BME280;20720;48.886;9.388;2023-01-27T06:40:29;98680.47;;;2.11;100.00
34482;BME280;20720;48.886;9.388;2023-01-27T06:42:54;98687.38;;;2.49;100.00
34482;BME280;20720;48.886;9.388;2023-01-27T06:45:20;98681.13;;;2.51;100.00
34482;BME280;20720;48.886;9.388;2023-01-27T06:47:53;98690.81;;;2.49;100.00
34482;BME280;20720;48.886;9.388;2023-01-27T06:50:18;98694.75;;;2.63;100.00
34482;BME280;20720;48.886;9.388;2023-01-27T06:52:44;98702.97;;;2.01;100.00
34482;BME280;20720;48.886;9.388;2023-01-27T06:55:09;98709.78;;;1.73;100.00
34482;BME280;20720;48.886;9.388;2023-01-27T06:57:34;98718.81;;;1.30;100.00
34482;BME280;20720;48.886;9.388;2023-01-27T06:59:59;98726.81;;;0.66;100.00
34482;BME280;20720;48.886;9.388;2023-01-27T07:02:25;98732.28;;;0.73;100.00
34482;BME280;20720;48.886;9.388;2023-01-27T07:04:50;98733.22;;;0.92;100.00
34482;BME280;20720;48.886;9.388;2023-01-27T07:07:15;98730.63;;;1.23;100.00
34482;BME280;20720;48.886;9.388;2023-01-27T07:09:40;98730.16;;;0.57;100.00
34482;BME280;20720;48.886;9.388;2023-01-27T07:12:06;98720.44;;;1.01;100.00
34482;BME280;20720;48.886;9.388;2023-01-27T07:14:31;98717.97;;;1.88;100.00
34482;BME280;20720;48.886;9.388;2023-01-27T07:16:56;98722.09;;;2.10;100.00
34482;BME280;20720;48.886;9.388;2023-01-27T07:19:21;98724.38;;;2.32;100.00
34482;BME280;20720;48.886;9.388;2023-01-27T07:21:47;98740.91;;;2.31;100.00
34482;BME280;20720;48.886;9.388;2023-01-27T07:24:12;98742.13;;;2.46;100.00
34482;BME280;20720;48.886;9.388;2023-01-27T07:26:37;98747.16;;;2.09;100.00
34482;BME280;20720;48.886;9.388;2023-01-27T07:29:03;98749.13;;;1.18;100.00
34482;BME280;20720;48.886;9.388;2023-01-27T07:31:28;98754.91;;;1.90;100.00
34482;BME280;20720;48.886;9.388;2023-01-27T07:33:53;98744.97;;;2.14;100.00
34482;BME280;20720;48.886;9.388;2023-01-27T07:36:19;98759.72;;;2.04;100.00
34482;BME280;20720;48.886;9.388;2023-01-27T07:38:44;98761.84;;;1.80;100.00
34482;BME280;20720;48.886;9.388;2023-01-27T07:41:12;98769.00;;;1.18;100.00
34482;BME280;20720;48.886;9.388;2023-01-27T07:43:38;98762.97;;;1.38;100.00
34482;BME280;20720;48.886;9.388;2023-01-27T07:46:03;98760.63;;;1.35;100.00
34482;BME280;20720;48.886;9.388;2023-01-27T07:48:29;98759.16;;;2.29;100.00
34482;BME280;20720;48.886;9.388;2023-01-27T07:50:54;98764.22;;;1.13;100.00
34482;BME280;20720;48.886;9.388;2023-01-27T07:53:19;98765.25;;;0.80;100.00
34482;BME280;20720;48.886;9.388;2023-01-27T07:55:44;98781.66;;;0.90;100.00
34482;BME280;20720;48.886;9.388;2023-01-27T07:58:10;98774.06;;;0.98;100.00
34482;BME280;20720;48.886;9.388;2023-01-27T08:00:35;98776.19;;;1.44;100.00
34482;BME280;20720;48.886;9.388;2023-01-27T08:03:01;98764.00;;;0.95;100.00
34482;BME280;20720;48.886;9.388;2023-01-27T08:05:27;98771.94;;;1.34;100.00
34482;BME280;20720;48.886;9.388;2023-01-27T08:07:54;98776.19;;;2.03;100.00
34482;BME280;20720;48.886;9.388;2023-01-27T08:10:20;98780.31;;;1.56;100.00
34482;BME280;20720;48.886;9.388;2023-01-27T08:12:46;98785.38;;;1.28;100.00
34482;BME280;20720;48.886;9.388;2023-01-27T08:15:12;98776.47;;;1.41;100.00
34482;BME280;20720;48.886;9.388;2023-01-27T08:17:37;98789.91;;;1.05;100.00
34482;BME280;20720;48.886;9.388;2023-01-27T08:20:03;98783.84;;;1.55;100.00
34482;BME280;20720;48.886;9.388;2023-01-27T08:22:29;98788.06;;;1.47;100.00
34482;BME280;20720;48.886;9.388;2023-01-27T08:24:54;98776.22;;;1.54;100.00
34482;BME280;20720;48.886;9.388;2023-01-27T08:27:20;98783.94;;;1.44;100.00
34482;BME280;20720;48.886;9.388;2023-01-27T08:29:45;98794.66;;;1.30;100.00
34482;BME280;20720;48.886;9.388;2023-01-27T08:32:10;98798.69;;;1.44;100.00
34482;BME280;20720;48.886;9.388;2023-01-27T08:34:36;98799.09;;;1.19;100.00
34482;BME280;20720;48.886;9.388;2023-01-27T08:37:02;98798.75;;;1.33;100.00
34482;BME280;20720;48.886;9.388;2023-01-27T08:39:28;98798.31;;;0.98;100.00
34482;BME280;20720;48.886;9.388;2023-01-27T08:41:53;98800.84;;;0.67;100.00
34482;BME280;20720;48.886;9.388;2023-01-27T08:44:18;98795.31;;;1.23;100.00
34482;BME280;20720;48.886;9.388;2023-01-27T08:46:43;98802.44;;;1.70;100.00
34482;BME280;20720;48.886;9.388;2023-01-27T08:49:09;98806.09;;;1.28;100.00
34482;BME280;20720;48.886;9.388;2023-01-27T08:51:34;98805.69;;;2.21;100.00
34482;BME280;20720;48.886;9.388;2023-01-27T08:54:00;98807.47;;;2.68;100.00
34482;BME280;20720;48.886;9.388;2023-01-27T08:56:25;98807.06;;;2.63;100.00
34482;BME280;20720;48.886;9.388;2023-01-27T08:58:50;98797.63;;;2.81;100.00
34482;BME280;20720;48.886;9.388;2023-01-27T09:01:18;98802.88;;;3.09;100.00
34482;BME280;20720;48.886;9.388;2023-01-27T09:03:44;98789.34;;;3.15;100.00
34482;BME280;20720;48.886;9.388;2023-01-27T09:06:11;98788.59;;;3.41;100.00
34482;BME280;20720;48.886;9.388;2023-01-27T09:08:38;98789.25;;;3.43;100.00
34482;BME280;20720;48.886;9.388;2023-01-27T09:11:14;98805.78;;;3.52;100.00
34482;BME280;20720;48.886;9.388;2023-01-27T09:13:40;98802.94;;;3.72;100.00
34482;BME280;20720;48.886;9.388;2023-01-27T09:16:06;98797.31;;;3.50;100.00
34482;BME280;20720;48.886;9.388;2023-01-27T09:18:32;98807.47;;;3.70;100.00
34482;BME280;20720;48.886;9.388;2023-01-27T09:21:04;98811.66;;;3.81;100.00
34482;BME280;20720;48.886;9.388;2023-01-27T09:23:30;98807.31;;;3.35;100.00
34482;BME280;20720;48.886;9.388;2023-01-27T09:25:56;98807.19;;;2.52;100.00
34482;BME280;20720;48.886;9.388;2023-01-27T09:28:21;98806.09;;;2.83;100.00
34482;BME280;20720;48.886;9.388;2023-01-27T09:30:46;98809.84;;;1.93;100.00
34482;BME280;20720;48.886;9.388;2023-01-27T09:33:13;98812.22;;;2.35;100.00
34482;BME280;20720;48.886;9.388;2023-01-27T09:35:47;98810.38;;;3.21;100.00
34482;BME280;20720;48.886;9.388;2023-01-27T09:38:18;98814.03;;;2.72;100.00
34482;BME280;20720;48.886;9.388;2023-01-27T09:55:21;98824.28;;;1.86;100.00
34482;BME280;20720;48.886;9.388;2023-01-27T09:57:54;98822.19;;;2.97;100.00
34482;BME280;20720;48.886;9.388;2023-01-27T10:05:46;98813.59;;;2.29;100.00
34482;BME280;20720;48.886;9.388;2023-01-27T10:13:58;98818.91;;;3.04;100.00
34482;BME280;20720;48.886;9.388;2023-01-27T10:21:39;98818.34;;;2.05;100.00
34482;BME280;20720;48.886;9.388;2023-01-27T10:27:00;98815.81;;;3.28;100.00
34482;BME280;20720;48.886;9.388;2023-01-27T10:29:37;98816.34;;;2.75;100.00
34482;BME280;20720;48.886;9.388;2023-01-27T10:35:07;98821.81;;;4.19;100.00
34482;BME280;20720;48.886;9.388;2023-01-27T10:40:18;98819.78;;;3.68;100.00
34482;BME280;20720;48.886;9.388;2023-01-27T10:42:56;98832.22;;;3.28;100.00
34482;BME280;20720;48.886;9.388;2023-01-27T10:50:39;98829.75;;;1.53;100.00
34482;BME280;20720;48.886;9.388;2023-01-27T10:53:19;98836.56;;;1.84;100.00
34482;BME280;20720;48.886;9.388;2023-01-27T10:55:57;98831.63;;;2.40;100.00
34482;BME280;20720;48.886;9.388;2023-01-27T10:58:47;98834.63;;;2.64;100.00
34482;BME280;20720;48.886;9.388;2023-01-27T11:01:18;98825.47;;;2.99;100.00
34482;BME280;20720;48.886;9.388;2023-01-27T11:03:53;98821.84;;;3.65;100.00
34482;BME280;20720;48.886;9.388;2023-01-27T11:06:23;98823.16;;;2.19;100.00
34482;BME280;20720;48.886;9.388;2023-01-27T11:08:58;98814.06;;;3.65;100.00
34482;BME280;20720;48.886;9.388;2023-01-27T11:11:26;98815.59;;;3.85;100.00
34482;BME280;20720;48.886;9.388;2023-01-27T11:16:38;98826.75;;;1.88;100.00
34482;BME280;20720;48.886;9.388;2023-01-27T11:19:21;98820.78;;;3.12;100.00
34482;BME280;20720;48.886;9.388;2023-01-27T11:21:50;98823.03;;;2.59;100.00
34482;BME280;20720;48.886;9.388;2023-01-27T11:24:43;98806.94;;;2.36;100.00
34482;BME280;20720;48.886;9.388;2023-01-27T11:27:48;98815.25;;;2.30;100.00
34482;BME280;20720;48.886;9.388;2023-01-27T11:30:18;98807.13;;;3.10;100.00
34482;BME280;20720;48.886;9.388;2023-01-27T11:35:14;98814.50;;;2.00;100.00
34482;BME280;20720;48.886;9.388;2023-01-27T11:37:42;98819.06;;;2.26;100.00
34482;BME280;20720;48.886;9.388;2023-01-27T11:42:45;98817.31;;;2.55;100.00
34482;BME280;20720;48.886;9.388;2023-01-27T11:45:14;98816.66;;;3.19;100.00
34482;BME280;20720;48.886;9.388;2023-01-27T11:47:41;98807.19;;;2.71;100.00
34482;BME280;20720;48.886;9.388;2023-01-27T11:50:18;98807.63;;;2.48;100.00
34482;BME280;20720;48.886;9.388;2023-01-27T11:52:47;98803.75;;;1.95;100.00
34482;BME280;20720;48.886;9.388;2023-01-27T11:55:17;98803.91;;;2.31;100.00
34482;BME280;20720;48.886;9.388;2023-01-27T11:57:49;98798.72;;;2.31;100.00
34482;BME280;20720;48.886;9.388;2023-01-27T12:00:22;98789.94;;;2.99;100.00
34482;BME280;20720;48.886;9.388;2023-01-27T12:03:17;98800.75;;;2.18;100.00
34482;BME280;20720;48.886;9.388;2023-01-27T12:05:52;98794.72;;;3.50;100.00
34482;BME280;20720;48.886;9.388;2023-01-27T12:08:43;98783.53;;;3.94;100.00
34482;BME280;20720;48.886;9.388;2023-01-27T12:13:49;98797.59;;;2.05;100.00
34482;BME280;20720;48.886;9.388;2023-01-27T12:16:16;98794.09;;;2.06;100.00
34482;BME280;20720;48.886;9.388;2023-01-27T12:18:54;98787.69;;;2.48;100.00
34482;BME280;20720;48.886;9.388;2023-01-27T12:21:34;98785.09;;;2.29;100.00
34482;BME280;20720;48.886;9.388;2023-01-27T12:24:01;98775.22;;;1.85;100.00
34482;BME280;20720;48.886;9.388;2023-01-27T12:26:33;98780.72;;;2.11;100.00
34482;BME280;20720;48.886;9.388;2023-01-27T12:29:00;98769.56;;;3.41;100.00
34482;BME280;20720;48.886;9.388;2023-01-27T12:31:30;98772.00;;;2.31;100.00
34482;BME280;20720;48.886;9.388;2023-01-27T12:34:02;98778.13;;;2.39;100.00
34482;BME280;20720;48.886;9.388;2023-01-27T12:36:35;98768.22;;;3.00;100.00
34482;BME280;20720;48.886;9.388;2023-01-27T12:39:03;98771.03;;;3.16;100.00
34482;BME280;20720;48.886;9.388;2023-01-27T12:41:32;98770.03;;;2.80;100.00
34482;BME280;20720;48.886;9.388;2023-01-27T12:44:16;98773.75;;;3.24;100.00
34482;BME280;20720;48.886;9.388;2023-01-27T12:47:29;98777.19;;;2.40;100.00
34482;BME280;20720;48.886;9.388;2023-01-27T12:49:47;98773.09;;;3.13;100.00
34482;BME280;20720;48.886;9.388;2023-01-27T12:52:18;98768.84;;;2.37;100.00
34482;BME280;20720;48.886;9.388;2023-01-27T12:54:45;98769.94;;;3.19;100.00
34482;BME280;20720;48.886;9.388;2023-01-27T12:57:16;98760.75;;;2.97;100.00
34482;BME280;20720;48.886;9.388;2023-01-27T12:59:54;98760.13;;;3.49;100.00
34482;BME280;20720;48.886;9.388;2023-01-27T13:02:30;98763.25;;;3.53;100.00
34482;BME280;20720;48.886;9.388;2023-01-27T13:05:02;98763.53;;;2.57;100.00
34482;BME280;20720;48.886;9.388;2023-01-27T13:07:35;98760.06;;;3.32;100.00
34482;BME280;20720;48.886;9.388;2023-01-27T13:10:05;98754.75;;;2.87;100.00
34482;BME280;20720;48.886;9.388;2023-01-27T13:12:49;98763.88;;;3.01;100.00
34482;BME280;20720;48.886;9.388;2023-01-27T13:15:19;98769.97;;;3.73;100.00
34482;BME280;20720;48.886;9.388;2023-01-27T13:17:52;98774.31;;;3.82;100.00
34482;BME280;20720;48.886;9.388;2023-01-27T13:20:28;98765.06;;;4.32;100.00
34482;BME280;20720;48.886;9.388;2023-01-27T13:23:13;98776.53;;;3.04;100.00
34482;BME280;20720;48.886;9.388;2023-01-27T13:28:14;98772.41;;;3.20;100.00
34482;BME280;20720;48.886;9.388;2023-01-27T13:30:45;98778.91;;;3.34;100.00
34482;BME280;20720;48.886;9.388;2023-01-27T13:36:11;98775.91;;;2.73;100.00
34482;BME280;20720;48.886;9.388;2023-01-27T13:38:59;98780.72;;;2.58;100.00
34482;BME280;20720;48.886;9.388;2023-01-27T13:41:41;98789.47;;;2.57;100.00
34482;BME280;20720;48.886;9.388;2023-01-27T13:44:27;98787.47;;;3.71;100.00
34482;BME280;20720;48.886;9.388;2023-01-27T13:46:57;98788.66;;;2.47;100.00
34482;BME280;20720;48.886;9.388;2023-01-27T13:49:45;98790.28;;;2.48;100.00
34482;BME280;20720;48.886;9.388;2023-01-27T13:52:12;98789.34;;;3.15;100.00
34482;BME280;20720;48.886;9.388;2023-01-27T13:54:38;98790.56;;;3.57;100.00
34482;BME280;20720;48.886;9.388;2023-01-27T13:59:40;98805.44;;;2.53;100.00
34482;BME280;20720;48.886;9.388;2023-01-27T14:02:33;98807.47;;;2.40;100.00
34482;BME280;20720;48.886;9.388;2023-01-27T14:08:19;98821.66;;;2.26;100.00
34482;BME280;20720;48.886;9.388;2023-01-27T14:10:57;98822.66;;;1.95;100.00
34482;BME280;20720;48.886;9.388;2023-01-27T14:13:56;98822.47;;;2.17;100.00
34482;BME280;20720;48.886;9.388;2023-01-27T14:19:08;98806.88;;;2.84;